Time;durP1;ratioP1;P1;durP2;ratioP2;P2;SDS_P1;SDS_P2;PMS_P1;PMS_P2;Temp;Humidity;BMP_temperature;BMP_pressure;BME280_temperature;BME280_humidity;BME280_pressure;Samples;Min_cycle;Max_cycle;Signal;HPM_P1;HPM_P2
2022/05/16 00:00:57;;;;;;;;;1.80;1.80;;;;;22.32;55.17;100626.97;5034971;28;47534;-49
2022/05/16 00:03:24;;;;;;;;;2.20;2.20;;;;;22.37;54.91;100625.25;5034934;28;45330;-51
2022/05/16 00:05:49;;;;;;;;;2.20;2.20;;;;;22.16;55.58;100628.25;5035453;28;45319;-52
2022/05/16 00:08:15;;;;;;;;;6.00;4.50;;;;;22.19;58.02;100659.25;5017207;28;45402;-49
2022/05/16 00:10:40;;;;;;;;;7.25;5.00;;;;;21.92;61.55;100629.00;5009242;28;45809;-49
2022/05/16 00:13:06;;;;;;;;;6.00;4.50;;;;;21.53;64.11;100628.72;5054588;28;45302;-50
2022/05/16 00:15:31;;;;;;;;;3.75;2.25;;;;;21.65;64.64;100659.06;5055439;28;45367;-48
2022/05/16 00:17:57;;;;;;;;;5.00;4.00;;;;;21.57;65.02;100637.34;5054133;28;45372;-46
2022/05/16 00:20:23;;;;;;;;;4.00;4.00;;;;;21.53;65.53;100623.13;5054512;28;45568;-53
2022/05/16 00:22:48;;;;;;;;;3.50;3.50;;;;;21.61;65.01;100627.25;5054970;28;45436;-53
2022/05/16 00:25:15;;;;;;;;;6.00;6.00;;;;;21.63;65.08;100604.63;5053780;28;45857;-52
2022/05/16 00:27:41;;;;;;;;;7.40;5.60;;;;;21.50;64.09;100618.09;5055258;28;45417;-49
2022/05/16 00:30:09;;;;;;;;;6.25;5.00;;;;;21.35;64.89;100615.41;5036966;28;47672;-47
2022/05/16 00:32:34;;;;;;;;;5.20;4.60;;;;;21.35;64.36;100627.41;5053252;28;45370;-49
2022/05/16 00:35:00;;;;;;;;;6.25;5.25;;;;;21.39;64.78;100633.25;5036954;28;45310;-50
2022/05/16 00:37:26;;;;;;;;;6.50;4.25;;;;;21.29;64.17;100611.81;5054960;28;45319;-48
2022/05/16 00:39:51;;;;;;;;;5.25;4.50;;;;;21.36;63.13;100634.66;5054770;28;46317;-49
2022/05/16 00:42:19;;;;;;;;;6.25;5.75;;;;;21.12;63.55;100601.00;5054576;28;45360;-49
2022/05/16 00:44:44;;;;;;;;;5.00;4.40;;;;;21.45;63.92;100628.47;5053669;28;45345;-51
2022/05/16 00:47:10;;;;;;;;;3.50;3.50;;;;;21.52;63.03;100632.59;5055037;28;45504;-48
2022/05/16 00:49:37;;;;;;;;;4.00;4.00;;;;;21.46;62.67;100622.59;5054420;28;45737;-49
2022/05/16 00:52:05;;;;;;;;;5.60;4.40;;;;;21.35;62.84;100598.66;5053439;28;45558;-48
2022/05/16 00:54:54;;;;;;;;;5.60;4.80;;;;;21.53;62.16;100616.69;5041599;28;45337;-50
2022/05/16 00:57:23;;;;;;;;;4.60;4.60;;;;;21.51;61.82;100616.97;5066206;28;45469;-48
2022/05/16 01:00:09;;;;;;;;;4.40;4.00;;;;;21.53;62.60;100605.53;5069779;28;45367;-52
2022/05/16 01:05:20;;;;;;;;;6.60;5.00;;;;;21.48;61.37;100595.25;5051010;28;45429;-49
2022/05/16 01:07:46;;;;;;;;;4.00;3.00;;;;;21.28;62.14;100559.91;5037611;28;45707;-52
2022/05/16 01:10:17;;;;;;;;;5.25;3.00;;;;;21.41;60.83;100594.72;5037724;28;46600;-49
2022/05/16 01:12:44;;;;;;;;;3.00;3.00;;;;;21.25;61.56;100596.78;5037738;28;45511;-47
2022/05/16 01:15:30;;;;;;;;;4.20;4.00;;;;;20.98;61.51;100575.72;5037840;28;45745;-51
2022/05/16 01:17:56;;;;;;;;;5.60;4.60;;;;;21.21;61.80;100604.88;5037148;28;45318;-50
2022/05/16 01:20:22;;;;;;;;;4.00;3.75;;;;;21.08;61.45;100586.00;5037489;28;45705;-49
2022/05/16 01:22:49;;;;;;;;;3.25;3.00;;;;;20.95;61.56;100573.47;5037072;28;45350;-53
2022/05/16 01:25:34;;;;;;;;;3.80;2.60;;;;;21.11;62.11;100602.13;5069848;28;45346;-49
2022/05/16 01:28:04;;;;;;;;;6.20;4.20;;;;;21.16;61.81;100601.28;5037645;28;45466;-48
2022/05/16 01:30:35;;;;;;;;;5.20;4.00;;;;;21.04;62.04;100593.25;5052516;28;48290;-49
2022/05/16 01:33:01;;;;;;;;;5.60;4.80;;;;;21.15;61.55;100603.25;5036968;28;45349;-48
2022/05/16 01:35:28;;;;;;;;;4.50;4.50;;;;;21.10;61.68;100606.06;5037192;28;45356;-49
2022/05/16 01:40:38;;;;;;;;;4.40;4.40;;;;;21.05;62.23;100625.59;5037418;28;45365;-48
2022/05/16 01:43:03;;;;;;;;;6.50;6.50;;;;;21.12;62.22;100628.91;5036805;28;45319;-50
2022/05/16 01:45:29;;;;;;;;;4.00;3.25;;;;;21.14;62.20;100626.69;5035931;28;45447;-52
2022/05/16 01:47:55;;;;;;;;;3.75;3.75;;;;;20.89;62.25;100583.84;5036996;28;45393;-51
2022/05/16 01:50:21;;;;;;;;;4.50;4.50;;;;;21.08;61.77;100625.06;5035960;28;46368;-48
2022/05/16 01:52:46;;;;;;;;;6.00;5.00;;;;;21.06;62.19;100630.06;5037146;28;45279;-50
2022/05/16 01:55:12;;;;;;;;;6.00;4.50;;;;;20.88;61.87;100604.50;5036740;28;45432;-49
2022/05/16 01:57:40;;;;;;;;;4.00;4.00;;;;;21.02;61.93;100629.78;5037442;28;45510;-52
2022/05/16 02:00:09;;;;;;;;;6.00;5.00;;;;;20.97;62.02;100624.25;5035341;28;46556;-51
2022/05/16 02:02:35;;;;;;;;;5.20;4.80;;;;;20.93;61.86;100629.56;5035535;28;45453;-48
2022/05/16 02:05:01;;;;;;;;;5.80;5.00;;;;;20.85;62.37;100617.03;5028085;28;45880;-46
2022/05/16 02:07:27;;;;;;;;;6.00;6.00;;;;;20.97;62.45;100635.41;5031875;28;45607;-53
2022/05/16 02:09:53;;;;;;;;;6.60;6.00;;;;;20.81;62.49;100598.34;5031930;28;45482;-52
2022/05/16 02:12:19;;;;;;;;;7.40;5.40;;;;;21.06;62.18;100633.69;5036043;28;45499;-51
2022/05/16 02:14:45;;;;;;;;;4.75;4.75;;;;;21.06;61.83;100632.84;5036865;28;45346;-49
2022/05/16 02:17:10;;;;;;;;;8.00;8.00;;;;;20.89;62.11;100617.31;5036025;28;45386;-47
2022/05/16 02:19:36;;;;;;;;;6.00;6.00;;;;;20.91;62.39;100636.56;5036456;28;45518;-45
2022/05/16 02:24:45;;;;;;;;;7.40;6.00;;;;;20.91;62.47;100625.41;5036823;28;45278;-49
2022/05/16 02:27:12;;;;;;;;;6.50;5.75;;;;;20.96;62.18;100634.56;5037072;28;45288;-52
2022/05/16 02:29:38;;;;;;;;;6.60;5.00;;;;;20.78;62.27;100610.06;5035343;28;47232;-48
2022/05/16 02:32:04;;;;;;;;;5.00;5.00;;;;;20.88;62.47;100639.91;5036665;28;45422;-49
2022/05/16 02:34:29;;;;;;;;;10.80;7.80;;;;;20.92;62.29;100635.44;5036519;28;45374;-48
2022/05/16 02:36:55;;;;;;;;;6.25;5.00;;;;;20.97;62.12;100635.41;5036877;28;45563;-49
2022/05/16 02:39:20;;;;;;;;;8.25;7.50;;;;;20.96;62.18;100629.00;5036282;28;45343;-51
2022/05/16 02:41:46;;;;;;;;;8.00;8.00;;;;;21.04;62.17;100635.94;5036502;28;45314;-51
2022/05/16 02:44:12;;;;;;;;;8.25;6.75;;;;;21.09;61.86;100632.28;5036371;28;45338;-50
2022/05/16 02:46:38;;;;;;;;;9.00;6.40;;;;;21.09;61.80;100633.09;5036811;28;45854;-46
2022/05/16 02:49:04;;;;;;;;;6.00;6.00;;;;;21.06;62.08;100644.84;5034904;28;47486;-46
2022/05/16 02:51:30;;;;;;;;;6.75;6.75;;;;;21.08;61.72;100652.94;5036374;28;45434;-51
2022/05/16 02:53:56;;;;;;;;;8.40;7.20;;;;;21.05;62.07;100645.13;5036370;28;45477;-50
2022/05/16 02:56:21;;;;;;;;;9.25;7.75;;;;;20.71;61.54;100591.69;5036488;28;45520;-52
2022/05/16 02:58:47;;;;;;;;;8.50;7.00;;;;;21.00;62.04;100626.47;5036443;28;46080;-49
2022/05/16 03:01:13;;;;;;;;;9.00;7.75;;;;;21.04;61.92;100635.94;5036147;28;45567;-51
2022/05/16 03:03:39;;;;;;;;;8.00;8.00;;;;;21.02;61.81;100637.34;5036206;28;45395;-51
2022/05/16 03:06:05;;;;;;;;;10.80;10.80;;;;;21.10;61.43;100636.75;5068558;27;45377;-46
2022/05/16 03:08:30;;;;;;;;;12.25;8.00;;;;;21.06;62.24;100639.28;5068283;28;45940;-50
2022/05/16 03:10:57;;;;;;;;;7.50;7.50;;;;;21.10;62.19;100642.31;5034955;28;45365;-49
2022/05/16 03:13:23;;;;;;;;;9.60;7.20;;;;;20.49;62.23;100535.44;5036054;28;45201;-50
2022/05/16 03:15:49;;;;;;;;;12.80;10.60;;;;;20.47;61.77;100540.47;5036136;28;45826;-52
2022/05/16 03:18:15;;;;;;;;;10.40;10.40;;;;;21.04;62.15;100651.84;5068296;28;47154;-50
2022/05/16 03:20:40;;;;;;;;;13.75;11.75;;;;;21.03;62.38;100661.34;5035791;28;45909;-47
2022/05/16 03:23:06;;;;;;;;;14.25;11.00;;;;;21.06;62.28;100675.53;5068370;28;45987;-49
2022/05/16 03:25:31;;;;;;;;;13.50;13.25;;;;;21.08;62.12;100681.66;5035743;28;45539;-49
2022/05/16 03:27:57;;;;;;;;;12.75;12.75;;;;;20.79;62.02;100629.31;5035818;28;46313;-52
2022/05/16 03:30:23;;;;;;;;;15.25;11.50;;;;;21.06;62.17;100666.31;5035664;28;45403;-51
2022/05/16 03:32:49;;;;;;;;;8.00;8.00;;;;;20.94;62.04;100652.72;5035936;28;45346;-49
2022/05/16 03:35:14;;;;;;;;;13.80;11.00;;;;;20.91;62.28;100658.88;5035877;28;45316;-49
2022/05/16 03:37:40;;;;;;;;;10.75;7.75;;;;;20.74;62.69;100671.13;5035535;28;45457;-51
2022/05/16 03:42:50;;;;;;;;;11.80;11.20;;;;;20.70;63.47;100682.03;5035405;28;45377;-49
2022/05/16 03:45:16;;;;;;;;;11.00;11.00;;;;;20.56;63.54;100659.47;5035910;28;45370;-50
2022/05/16 03:47:41;;;;;;;;;11.50;11.50;;;;;20.81;63.06;100701.53;5035263;28;45357;-53
2022/05/16 03:50:08;;;;;;;;;13.75;13.75;;;;;20.86;62.73;100707.13;5035620;28;45339;-49
2022/05/16 03:52:33;;;;;;;;;11.40;8.40;;;;;20.86;62.91;100704.31;5035289;28;45473;-48
2022/05/16 03:54:59;;;;;;;;;11.75;11.00;;;;;20.92;62.85;100708.78;5067967;28;45226;-50
2022/05/16 03:57:24;;;;;;;;;8.75;8.25;;;;;20.93;62.54;100718.00;5035304;28;45504;-49
2022/05/16 03:59:50;;;;;;;;;13.50;13.50;;;;;20.81;62.77;100704.31;5035153;28;45779;-51
2022/05/16 04:02:15;;;;;;;;;15.75;13.00;;;;;20.87;62.73;100702.38;5035572;28;45400;-51
2022/05/16 04:04:41;;;;;;;;;16.75;13.75;;;;;20.85;62.68;100716.59;5034330;28;45560;-49
2022/05/16 04:07:07;;;;;;;;;14.75;12.75;;;;;20.81;62.83;100713.50;5033894;28;46061;-49
2022/05/16 04:09:32;;;;;;;;;15.75;14.00;;;;;20.81;63.21;100715.47;5035202;28;45497;-50
2022/05/16 04:11:58;;;;;;;;;16.00;13.50;;;;;20.79;62.82;100723.28;5035290;28;45379;-49
2022/05/16 04:14:54;;;;;;;;;12.00;12.00;;;;;20.81;63.17;100726.63;5035418;28;45446;-51
2022/05/16 04:17:19;;;;;;;;;14.20;14.20;;;;;20.81;62.77;100737.78;5035266;28;45455;-50
2022/05/16 04:19:45;;;;;;;;;14.25;12.50;;;;;20.79;62.94;100742.78;5034993;28;45351;-49
2022/05/16 04:22:12;;;;;;;;;14.00;13.00;;;;;20.80;63.05;100738.88;5033594;28;45314;-48
2022/05/16 04:24:37;;;;;;;;;15.40;15.40;;;;;20.85;63.03;100753.72;5035311;28;45256;-47
2022/05/16 04:27:03;;;;;;;;;15.75;13.25;;;;;20.84;63.26;100753.97;5034705;28;45302;-48
2022/05/16 04:29:28;;;;;;;;;16.50;15.25;;;;;20.57;63.06;100728.06;5036739;28;45417;-53
2022/05/16 04:31:54;;;;;;;;;13.25;13.25;;;;;20.58;63.20;100720.53;5038385;28;45453;-50
2022/05/16 04:34:19;;;;;;;;;17.25;14.25;;;;;20.83;63.04;100766.22;5038625;28;45412;-51
2022/05/16 04:36:45;;;;;;;;;17.50;14.75;;;;;20.84;63.11;100765.13;5038348;28;46408;-50
2022/05/16 04:39:10;;;;;;;;;15.00;13.00;;;;;20.83;63.23;100775.44;5038117;28;45783;-50
2022/05/16 04:44:20;;;;;;;;;12.80;12.80;;;;;20.89;62.92;100783.81;5038638;28;45342;-46
2022/05/16 04:46:46;;;;;;;;;16.75;15.50;;;;;20.88;62.76;100782.16;5038240;28;46540;-47
2022/05/16 04:49:11;;;;;;;;;16.00;14.25;;;;;20.84;62.84;100802.25;5037646;28;45391;-50
2022/05/16 04:51:37;;;;;;;;;16.00;14.25;;;;;20.76;62.87;100796.38;5038439;28;45401;-52
2022/05/16 04:54:02;;;;;;;;;17.75;16.50;;;;;20.87;62.96;100814.81;5038215;28;45538;-48
2022/05/16 04:56:28;;;;;;;;;20.75;17.25;;;;;20.67;62.78;100801.66;5036574;28;45489;-49
2022/05/16 04:58:53;;;;;;;;;15.00;15.00;;;;;20.81;63.08;100832.63;5038028;28;45421;-50
2022/05/16 05:01:19;;;;;;;;;15.75;13.50;;;;;20.85;62.91;100840.19;5037615;28;45379;-49
2022/05/16 05:03:44;;;;;;;;;14.00;14.00;;;;;20.67;63.11;100810.88;5038145;28;45354;-49
2022/05/16 05:06:10;;;;;;;;;19.50;19.00;;;;;20.88;62.60;100847.16;5037419;28;45362;-50
2022/05/16 05:08:36;;;;;;;;;18.75;15.25;;;;;20.88;62.75;100847.16;5037870;28;45470;-51
2022/05/16 05:16:29;;;;;;;;;17.20;17.20;;;;;20.84;62.76;100851.59;5037422;28;45440;-48
2022/05/16 05:18:55;;;;;;;;;21.75;21.25;;;;;20.80;62.71;100850.44;5037849;28;45408;-49
2022/05/16 05:21:21;;;;;;;;;17.25;16.25;;;;;20.74;62.94;100840.44;5037634;28;45319;-51
2022/05/16 05:23:46;;;;;;;;;16.50;15.50;;;;;20.78;62.97;100845.16;5038186;28;45493;-49
2022/05/16 05:26:12;;;;;;;;;16.00;14.50;;;;;20.81;62.80;100844.59;5037468;28;45351;-48
2022/05/16 05:28:38;;;;;;;;;17.80;16.40;;;;;20.61;62.50;100823.13;5052992;28;45399;-49
2022/05/16 05:31:04;;;;;;;;;16.00;15.60;;;;;20.48;62.76;100827.28;5069826;28;45501;-50
2022/05/16 05:33:30;;;;;;;;;20.75;19.75;;;;;20.72;62.58;100869.41;5037380;28;45528;-49
2022/05/16 05:35:55;;;;;;;;;16.25;15.00;;;;;20.42;63.09;100834.81;5069626;28;45537;-51
2022/05/16 05:38:21;;;;;;;;;19.75;16.50;;;;;20.33;62.93;100836.47;5069940;28;45452;-51
2022/05/16 05:40:49;;;;;;;;;19.75;16.75;;;;;20.63;62.79;100881.38;5036142;28;45405;-51
2022/05/16 05:43:14;;;;;;;;;23.00;21.40;;;;;20.61;63.14;100884.47;5037654;28;45323;-48
2022/05/16 05:45:40;;;;;;;;;24.25;22.25;;;;;20.69;62.88;100903.44;5035738;28;47894;-53
2022/05/16 05:48:06;;;;;;;;;15.40;15.40;;;;;20.77;62.58;100906.78;5037416;28;45299;-53
2022/05/16 05:50:31;;;;;;;;;21.75;21.00;;;;;20.78;62.62;100912.09;5036960;28;45346;-48
2022/05/16 05:52:58;;;;;;;;;23.50;21.50;;;;;20.78;62.66;100909.31;5037689;28;45184;-48
2022/05/16 05:55:23;;;;;;;;;17.20;16.60;;;;;20.53;62.06;100876.63;5036854;28;45622;-49
2022/05/16 05:57:49;;;;;;;;;18.25;18.00;;;;;20.84;61.94;100941.72;5036717;28;45362;-48
2022/05/16 06:00:15;;;;;;;;;16.50;16.50;;;;;20.86;61.96;100944.19;5037077;28;45338;-53
2022/05/16 06:02:40;;;;;;;;;18.40;18.20;;;;;20.91;61.88;100952.56;5037078;28;45250;-52
2022/05/16 06:05:11;;;;;;;;;21.25;19.50;;;;;20.89;61.37;100940.00;5019857;28;46120;-48
2022/05/16 06:07:36;;;;;;;;;20.00;20.00;;;;;20.89;61.26;100943.66;5033917;28;45243;-53
2022/05/16 06:10:03;;;;;;;;;17.50;17.50;;;;;20.58;61.69;100913.75;5036883;28;45471;-48
2022/05/16 06:12:29;;;;;;;;;20.80;18.60;;;;;20.79;61.44;100963.97;5036916;28;45349;-54
2022/05/16 06:14:55;;;;;;;;;19.75;19.00;;;;;20.80;61.43;100956.44;5035389;28;46488;-50
2022/05/16 06:17:20;;;;;;;;;25.00;20.75;;;;;20.83;61.49;100947.53;5035704;28;45485;-49
2022/05/16 06:19:46;;;;;;;;;28.25;23.25;;;;;20.88;61.36;100961.50;5036874;28;45370;-50
2022/05/16 06:22:12;;;;;;;;;22.80;19.80;;;;;20.85;61.91;100962.06;5035143;28;45525;-52
2022/05/16 06:27:22;;;;;;;;;19.60;19.40;;;;;20.91;60.74;100965.72;5036666;28;45377;-49
2022/05/16 06:29:47;;;;;;;;;19.25;19.25;;;;;20.74;60.33;100943.63;5035546;28;45425;-49
2022/05/16 06:32:13;;;;;;;;;21.75;17.75;;;;;20.90;60.56;100983.53;5036681;28;45350;-51
2022/05/16 06:34:38;;;;;;;;;21.50;17.75;;;;;20.74;60.76;100954.78;5036645;28;46077;-52
2022/05/16 06:37:04;;;;;;;;;11.00;11.00;;;;;20.99;60.43;100985.50;5036022;28;45328;-53
2022/05/16 06:39:29;;;;;;;;;18.75;17.00;;;;;21.02;60.37;100989.69;5036769;28;45331;-50
2022/05/16 06:41:55;;;;;;;;;23.75;20.25;;;;;21.04;60.56;100995.00;5036422;28;45354;-48
2022/05/16 06:44:20;;;;;;;;;22.25;17.75;;;;;21.08;60.14;100999.75;5036236;28;46360;-54
2022/05/16 06:46:46;;;;;;;;;19.00;19.00;;;;;21.11;60.23;101015.09;5035978;28;45395;-53
2022/05/16 06:49:12;;;;;;;;;20.00;17.50;;;;;21.04;59.82;101006.16;5036028;28;45387;-50
2022/05/16 06:51:37;;;;;;;;;23.20;21.40;;;;;20.89;59.87;100996.66;5034951;28;45489;-47
2022/05/16 06:54:04;;;;;;;;;23.00;21.75;;;;;20.77;59.88;101018.34;5034599;28;46985;-48
2022/05/16 06:56:29;;;;;;;;;21.00;16.80;;;;;20.83;60.19;101025.63;5017602;28;45355;-49
2022/05/16 06:58:55;;;;;;;;;15.25;15.25;;;;;20.83;60.04;101029.25;5035949;28;45979;-53
2022/05/16 07:01:20;;;;;;;;;19.00;16.75;;;;;20.87;59.76;101040.75;5035353;28;45375;-53
2022/05/16 07:03:46;;;;;;;;;15.25;13.75;;;;;20.67;59.96;101052.63;5035992;28;45372;-50
2022/05/16 07:06:14;;;;;;;;;18.50;17.00;;;;;20.71;60.47;101050.97;5027791;28;45600;-49
2022/05/16 07:08:40;;;;;;;;;16.40;15.40;;;;;20.62;60.04;101033.06;5055087;28;45368;-49
2022/05/16 07:11:06;;;;;;;;;19.20;19.20;;;;;20.68;58.97;101057.94;5053466;28;45441;-48
2022/05/16 07:13:31;;;;;;;;;14.50;14.00;;;;;20.71;58.66;101057.38;5055316;28;46352;-51
2022/05/16 07:15:57;;;;;;;;;17.00;17.00;;;;;20.79;58.66;101055.16;5037041;28;45435;-54
2022/05/16 07:18:23;;;;;;;;;18.50;13.75;;;;;20.79;58.92;101044.84;5034676;28;45488;-52
2022/05/16 07:20:48;;;;;;;;;18.25;15.25;;;;;21.01;59.06;101070.91;5035706;28;45509;-52
2022/05/16 07:23:14;;;;;;;;;15.75;14.50;;;;;21.05;58.52;101069.22;5035124;28;45871;-50
2022/05/16 07:28:24;;;;;;;;;17.20;16.20;;;;;21.24;57.85;101069.56;5033962;28;45453;-53
2022/05/16 07:30:50;;;;;;;;;17.00;14.75;;;;;21.28;57.77;101067.88;5035727;28;45601;-49
2022/05/16 07:33:15;;;;;;;;;15.00;14.50;;;;;21.30;57.70;101079.63;5035347;28;45911;-48
2022/05/16 07:35:41;;;;;;;;;19.00;17.75;;;;;21.34;57.35;101086.31;5035287;28;45432;-53
2022/05/16 07:38:07;;;;;;;;;13.50;13.50;;;;;21.23;56.96;101067.84;5035366;28;45468;-54
2022/05/16 07:40:34;;;;;;;;;15.50;15.50;;;;;21.32;57.24;101082.09;5034501;28;45426;-51
2022/05/16 07:43:00;;;;;;;;;15.00;14.80;;;;;21.22;57.23;101064.25;5035563;28;45569;-52
2022/05/16 07:45:26;;;;;;;;;12.60;12.00;;;;;21.37;56.50;101088.56;5067789;28;45297;-52
2022/05/16 07:47:52;;;;;;;;;15.00;15.00;;;;;21.51;56.09;101101.97;5035452;28;45396;-53
2022/05/16 07:50:18;;;;;;;;;14.75;14.50;;;;;21.58;56.44;101087.72;5017188;28;45623;-52
2022/05/16 07:52:48;;;;;;;;;10.25;10.25;;;;;21.62;56.25;101086.06;5033763;28;46326;-50
2022/05/16 07:55:21;;;;;;;;;14.20;13.20;;;;;21.71;55.15;101108.72;5066328;28;45465;-51
2022/05/16 07:57:47;;;;;;;;;9.40;9.40;;;;;21.67;54.48;101105.63;5033878;28;45488;-52
2022/05/16 08:00:13;;;;;;;;;11.25;11.25;;;;;21.40;54.40;101078.78;5034916;28;45693;-51
2022/05/16 08:02:39;;;;;;;;;12.60;12.00;;;;;21.49;54.68;101102.25;5017554;28;46861;-51
2022/05/16 08:05:11;;;;;;;;;12.00;9.00;;;;;21.47;54.43;101107.28;5037435;28;45358;-56
2022/05/16 08:10:29;;;;;;;;;13.40;11.20;;;;;21.56;53.91;101115.91;5038447;28;45429;-55
2022/05/16 08:10:31;;;;;;;;;9.40;8.00;;;;;21.11;53.53;101048.59;5038747;28;45320;-53
2022/05/16 08:13:01;;;;;;;;;10.00;9.00;;;;;21.50;53.15;101120.66;5038471;28;46338;-55
2022/05/16 08:15:29;;;;;;;;;9.80;9.80;;;;;21.56;53.05;101115.91;5037485;28;45505;-53
2022/05/16 08:17:58;;;;;;;;;12.40;9.60;;;;;21.48;53.07;101102.50;5038652;28;45379;-54
2022/05/16 08:20:24;;;;;;;;;7.40;7.40;;;;;21.55;53.13;101121.81;5038951;28;45367;-52
2022/05/16 08:22:51;;;;;;;;;8.00;8.00;;;;;21.53;52.67;101120.13;5001056;27;46625;-50
2022/05/16 08:25:16;;;;;;;;;7.60;6.40;;;;;21.58;52.98;101122.09;5037717;28;45633;-50
2022/05/16 08:27:42;;;;;;;;;7.75;7.75;;;;;21.32;52.99;101096.06;5037141;28;45461;-48
2022/05/16 08:30:08;;;;;;;;;9.75;9.75;;;;;21.56;52.84;101129.88;5071212;28;45342;-51
2022/05/16 08:32:34;;;;;;;;;14.40;8.80;;;;;21.36;51.84;101097.19;5070100;28;46163;-48
2022/05/16 08:35:01;;;;;;;;;7.25;7.25;;;;;21.21;52.35;101135.13;5038210;28;45376;-53
2022/05/16 08:40:11;;;;;;;;;11.60;8.00;;;;;21.42;52.17;101134.34;5036769;28;45365;-49
2022/05/16 08:42:51;;;;;;;;;6.50;6.00;;;;;21.40;52.07;101154.16;5037783;28;45460;-49
2022/05/16 08:45:40;;;;;;;;;6.80;6.20;;;;;21.24;51.96;101123.41;5070592;28;45243;-51
2022/05/16 08:48:12;;;;;;;;;11.00;7.00;;;;;21.51;52.19;101144.69;5035399;28;45690;-48
2022/05/16 08:50:42;;;;;;;;;10.00;6.80;;;;;21.58;51.85;101151.94;5037040;28;45435;-53
2022/05/16 08:53:17;;;;;;;;;7.40;5.20;;;;;21.65;51.93;101149.72;5052128;28;46177;-49
2022/05/16 08:55:56;;;;;;;;;10.40;9.60;;;;;21.68;52.50;101151.97;5037417;28;45315;-50
2022/05/16 08:58:39;;;;;;;;;11.80;10.80;;;;;21.44;53.04;101163.66;5036903;28;45247;-53
2022/05/16 09:01:11;;;;;;;;;10.80;10.20;;;;;21.33;54.11;101146.03;5036827;28;45410;-51
2022/05/16 09:03:43;;;;;;;;;9.20;9.20;;;;;21.23;53.96;101129.25;5035771;28;45690;-49
2022/05/16 09:06:17;;;;;;;;;9.00;7.80;;;;;21.46;55.08;101167.00;5036473;28;45400;-51
2022/05/16 09:08:49;;;;;;;;;12.00;10.60;;;;;21.42;55.46;101174.28;5034824;28;45439;-49
2022/05/16 09:11:26;;;;;;;;;13.20;9.40;;;;;21.21;55.84;101148.25;5004002;27;45535;-53
2022/05/16 09:13:57;;;;;;;;;11.80;11.80;;;;;21.47;56.69;101182.66;5027341;28;46457;-51
2022/05/16 09:16:37;;;;;;;;;11.20;9.40;;;;;21.49;56.15;101183.22;5031814;28;45578;-50
2022/05/16 09:19:33;;;;;;;;;12.40;10.40;;;;;21.54;55.99;101187.97;5028362;28;45685;-54
2022/05/16 09:22:28;;;;;;;;;12.00;12.00;;;;;21.60;55.46;101194.44;4996929;28;46167;-51
2022/05/16 09:24:56;;;;;;;;;12.00;12.00;;;;;21.33;55.67;101125.66;5022477;28;46923;-51
2022/05/16 09:30:14;;;;;;;;;7.20;6.00;;;;;21.88;55.17;101197.84;5057530;27;45795;-52
2022/05/16 09:32:45;;;;;;;;;11.20;9.00;;;;;21.76;54.73;101165.41;5032319;28;45455;-53
2022/05/16 09:35:21;;;;;;;;;8.20;8.20;;;;;21.84;54.51;101169.63;5044083;28;46100;-53
2022/05/16 09:37:47;;;;;;;;;8.00;8.00;;;;;22.04;53.40;101193.94;5031108;28;45830;-53
2022/05/16 09:40:13;;;;;;;;;11.25;9.75;;;;;21.94;53.77;101178.00;5029713;28;45722;-51
2022/05/16 09:42:38;;;;;;;;;10.25;10.25;;;;;21.91;53.77;101169.34;5064301;28;45452;-54
2022/05/16 09:45:12;;;;;;;;;12.75;10.75;;;;;21.88;53.69;101175.50;5031888;28;45553;-54
2022/05/16 09:47:40;;;;;;;;;8.80;8.80;;;;;21.83;54.41;101209.00;5046795;28;45659;-53
2022/05/16 09:50:09;;;;;;;;;8.60;7.40;;;;;21.77;54.04;101194.22;5063885;28;45527;-51
2022/05/16 09:52:46;;;;;;;;;14.40;12.00;;;;;21.91;54.19;101225.22;5031283;28;45556;-53
2022/05/16 09:55:14;;;;;;;;;8.00;8.00;;;;;21.88;54.42;101209.03;5063576;28;47297;-51
2022/05/16 09:57:51;;;;;;;;;11.40;9.80;;;;;21.71;53.44;101217.66;5031427;28;45534;-53
2022/05/16 10:00:23;;;;;;;;;10.40;10.40;;;;;21.67;53.57;101218.16;5015645;28;45489;-49
2022/05/16 10:03:16;;;;;;;;;9.80;7.40;;;;;21.69;54.20;101217.94;5031151;28;45556;-55
2022/05/16 10:05:48;;;;;;;;;13.40;11.20;;;;;21.71;54.12;101224.06;5024163;28;45813;-52
2022/05/16 10:08:14;;;;;;;;;8.00;8.00;;;;;21.79;53.84;101229.09;5032101;28;45420;-53
2022/05/16 10:10:41;;;;;;;;;13.20;11.80;;;;;21.81;53.55;101223.25;5017564;28;45502;-55
2022/05/16 10:13:06;;;;;;;;;11.80;10.20;;;;;21.73;54.24;101224.66;5013376;28;45590;-53
2022/05/16 10:15:32;;;;;;;;;11.25;11.25;;;;;21.90;54.23;101229.13;5030806;28;46144;-56
2022/05/16 10:17:58;;;;;;;;;10.40;10.40;;;;;21.96;54.10;101221.59;5032024;28;45795;-56
2022/05/16 10:20:36;;;;;;;;;11.75;10.75;;;;;21.84;54.58;101203.16;5029901;28;45482;-55
2022/05/16 10:23:04;;;;;;;;;13.80;12.40;;;;;22.07;53.97;101234.47;5063155;28;45824;-56
2022/05/16 10:25:39;;;;;;;;;10.60;10.20;;;;;22.17;54.19;101226.09;5029326;28;45852;-53
2022/05/16 10:28:09;;;;;;;;;11.60;11.60;;;;;22.25;53.77;101227.47;5028612;28;45747;-54
2022/05/16 10:33:24;;;;;;;;;11.40;9.00;;;;;22.39;53.11;101230.56;5030227;28;45830;-53
2022/05/16 10:33:27;;;;;;;;;16.20;13.60;;;;;22.54;53.13;101232.53;5029334;28;45790;-52
2022/05/16 10:36:10;;;;;;;;;12.80;11.80;;;;;22.52;52.70;101219.97;5046110;28;45879;-54
2022/05/16 10:38:52;;;;;;;;;13.60;13.40;;;;;22.51;52.92;101235.88;5030857;28;45491;-55
2022/05/16 10:41:29;;;;;;;;;13.20;11.60;;;;;22.12;53.02;101223.28;5015506;28;45500;-54
2022/05/16 10:44:23;;;;;;;;;13.00;11.80;;;;;22.26;53.03;101228.31;5064032;28;45485;-50
2022/05/16 10:47:07;;;;;;;;;14.00;12.20;;;;;22.44;53.27;101224.13;5064283;28;45473;-49
2022/05/16 10:49:48;;;;;;;;;9.20;8.00;;;;;22.48;52.14;101180.50;5061819;28;45965;-49
2022/05/16 10:52:23;;;;;;;;;13.00;12.40;;;;;22.96;51.58;101224.06;5061449;27;45469;-55
2022/05/16 10:54:48;;;;;;;;;9.60;9.60;;;;;23.08;50.74;101224.56;5031966;28;45656;-53
2022/05/16 10:57:20;;;;;;;;;15.50;10.50;;;;;22.88;51.01;101173.16;5031910;28;45574;-55
2022/05/16 11:00:06;;;;;;;;;12.60;11.00;;;;;23.09;50.64;101234.66;5030388;28;45427;-53
2022/05/16 11:02:56;;;;;;;;;12.20;11.20;;;;;23.01;50.84;101232.44;5031377;28;45794;-56
2022/05/16 11:05:55;;;;;;;;;13.00;11.80;;;;;23.05;50.50;101222.34;5029571;28;45922;-52
2022/05/16 11:08:38;;;;;;;;;13.00;13.00;;;;;23.13;50.41;101224.56;5030148;28;46444;-56
2022/05/16 11:11:08;;;;;;;;;10.00;9.00;;;;;23.13;50.20;101221.78;5020156;27;45954;-59
2022/05/16 11:13:47;;;;;;;;;8.80;8.80;;;;;22.92;49.20;101197.75;5029961;28;45518;-50
2022/05/16 11:16:16;;;;;;;;;8.80;8.80;;;;;22.90;49.35;101186.88;5013320;28;45560;-52
2022/05/16 11:18:45;;;;;;;;;9.60;8.60;;;;;23.10;49.66;101221.50;5031081;28;46099;-49
2022/05/16 11:21:23;;;;;;;;;8.20;7.40;;;;;23.01;49.90;101204.47;5063502;28;45513;-51
2022/05/16 11:24:20;;;;;;;;;9.60;9.60;;;;;23.05;50.19;101202.75;5031083;28;45449;-50
2022/05/16 11:26:53;;;;;;;;;9.20;8.00;;;;;23.24;49.83;101227.31;5063888;28;45523;-48
2022/05/16 11:29:28;;;;;;;;;9.60;7.20;;;;;23.30;49.02;101234.59;5045264;28;46148;-47
2022/05/16 11:32:02;;;;;;;;;8.20;8.20;;;;;23.38;48.97;101228.38;5031120;28;45835;-51
2022/05/16 11:34:49;;;;;;;;;7.80;7.40;;;;;23.24;48.52;101191.75;5061900;28;45781;-49
2022/05/16 11:37:30;;;;;;;;;8.00;7.60;;;;;23.43;48.69;101221.94;5031605;28;45621;-48
2022/05/16 11:40:01;;;;;;;;;8.60;8.20;;;;;23.58;48.95;101214.59;5030100;28;46202;-51
2022/05/16 11:42:44;;;;;;;;;10.00;9.20;;;;;23.74;49.19;101221.75;5063435;28;45405;-51
2022/05/16 11:45:20;;;;;;;;;6.00;6.00;;;;;23.98;48.62;101212.63;5063376;28;45773;-54
2022/05/16 11:47:56;;;;;;;;;13.00;9.00;;;;;24.23;47.46;101219.19;5063509;28;45923;-49
2022/05/16 11:50:28;;;;;;;;;8.40;7.40;;;;;24.34;46.29;101184.31;5045841;28;45494;-55
2022/05/16 11:52:56;;;;;;;;;6.00;6.00;;;;;24.41;46.24;101206.41;5038833;28;46007;-47
2022/05/16 12:01:29;;;;;;;;;5.80;5.40;;;;;24.66;45.51;101198.88;5028430;28;45941;-53